Time;durP1;ratioP1;P1;durP2;ratioP2;P2;SDS_P1;SDS_P2;PMS_P1;PMS_P2;Temp;Humidity;BMP_temperature;BMP_pressure;BME280_temperature;BME280_humidity;BME280_pressure;Samples;Min_cycle;Max_cycle;Signal;HPM_P1;HPM_P2
2024/01/08 00:00:41;;;;;;;0.40;0.40;;;1.60;99.90;;;;;;5014022;28;20259;-59
2024/01/08 00:03:09;;;;;;;1.27;0.47;;;1.60;99.90;;;;;;5013945;28;20207;-59
2024/01/08 00:05:38;;;;;;;0.50;0.50;;;1.60;99.90;;;;;;5013879;28;20609;-59
2024/01/08 00:08:06;;;;;;;0.73;0.40;;;1.60;99.90;;;;;;5013923;28;20203;-59
2024/01/08 00:10:35;;;;;;;0.52;0.52;;;1.60;99.90;;;;;;5013834;28;20293;-59
2024/01/08 00:13:02;;;;;;;0.40;0.40;;;1.60;99.90;;;;;;5013796;28;20725;-58
2024/01/08 00:15:30;;;;;;;1.73;0.40;;;1.60;99.90;;;;;;5013731;28;20599;-59
2024/01/08 00:18:00;;;;;;;0.60;0.60;;;1.70;99.90;;;;;;5012708;28;20215;-59
2024/01/08 00:20:29;;;;;;;0.70;0.57;;;1.70;99.90;;;;;;5012216;28;20326;-60
2024/01/08 00:22:57;;;;;;;0.60;0.57;;;1.70;99.90;;;;;;5005788;28;20211;-59
2024/01/08 00:25:26;;;;;;;1.60;0.40;;;1.60;99.90;;;;;;5013695;28;20322;-59
2024/01/08 00:27:54;;;;;;;0.50;0.50;;;1.60;99.90;;;;;;5013345;28;20234;-59
2024/01/08 00:30:22;;;;;;;0.50;0.50;;;1.60;99.90;;;;;;5013467;28;20259;-59
2024/01/08 00:32:50;;;;;;;0.95;0.50;;;1.50;99.90;;;;;;5021425;28;20211;-59
2024/01/08 00:35:19;;;;;;;0.50;0.50;;;1.50;99.90;;;;;;5013662;28;20210;-59
2024/01/08 00:37:47;;;;;;;0.85;0.50;;;1.50;99.90;;;;;;5021384;28;20234;-58
2024/01/08 00:40:15;;;;;;;1.75;0.50;;;1.40;99.90;;;;;;5013324;28;20542;-60
2024/01/08 00:42:43;;;;;;;0.50;0.50;;;1.40;99.90;;;;;;5013226;28;20242;-59
2024/01/08 00:45:11;;;;;;;0.50;0.50;;;1.50;99.90;;;;;;5013109;28;20259;-59
2024/01/08 00:47:40;;;;;;;0.50;0.50;;;1.50;99.90;;;;;;5010959;28;20239;-59
2024/01/08 00:50:10;;;;;;;0.40;0.40;;;1.50;99.90;;;;;;5013037;28;20226;-60
2024/01/08 00:52:39;;;;;;;0.35;0.35;;;1.50;99.90;;;;;;5012256;28;20207;-59
2024/01/08 00:55:08;;;;;;;2.58;0.50;;;1.50;99.90;;;;;;5012694;28;20199;-60
2024/01/08 00:57:36;;;;;;;0.40;0.40;;;1.50;99.90;;;;;;5012786;28;20257;-58
2024/01/08 01:00:04;;;;;;;0.70;0.70;;;1.50;99.90;;;;;;5012615;28;20227;-59
2024/01/08 01:02:32;;;;;;;0.82;0.80;;;1.50;99.90;;;;;;5013065;28;20297;-59
2024/01/08 01:05:00;;;;;;;1.02;0.70;;;1.60;99.90;;;;;;5021066;28;20223;-59
2024/01/08 01:07:29;;;;;;;1.42;1.10;;;1.50;99.90;;;;;;5012610;28;20243;-59
2024/01/08 01:09:58;;;;;;;3.05;0.60;;;1.50;99.90;;;;;;5012358;28;20226;-59
2024/01/08 01:12:26;;;;;;;4.10;0.55;;;1.50;99.90;;;;;;5012440;28;20688;-59
2024/01/08 01:14:54;;;;;;;0.60;0.60;;;1.50;99.90;;;;;;5013022;28;20211;-59
2024/01/08 01:17:22;;;;;;;0.55;0.55;;;1.50;99.90;;;;;;5012440;28;20764;-59
2024/01/08 01:19:50;;;;;;;4.00;0.50;;;1.50;99.90;;;;;;5012342;28;20258;-59
2024/01/08 01:22:18;;;;;;;0.50;0.47;;;1.50;99.90;;;;;;5012551;28;20210;-58
2024/01/08 01:24:46;;;;;;;1.65;0.75;;;1.50;99.90;;;;;;5011808;28;20306;-59
2024/01/08 01:27:15;;;;;;;0.60;0.50;;;1.50;99.90;;;;;;5017702;28;20318;-60
2024/01/08 01:29:43;;;;;;;0.55;0.50;;;1.40;99.90;;;;;;5014469;28;20227;-59
2024/01/08 01:32:11;;;;;;;0.75;0.55;;;1.40;99.90;;;;;;5012593;28;20234;-58
2024/01/08 01:34:39;;;;;;;0.47;0.47;;;1.40;99.90;;;;;;5012052;28;20601;-59
2024/01/08 01:37:06;;;;;;;0.68;0.43;;;1.50;99.90;;;;;;5012323;28;20202;-59
2024/01/08 01:39:34;;;;;;;1.85;0.40;;;1.50;99.90;;;;;;5011639;28;20254;-59
2024/01/08 01:42:02;;;;;;;0.60;0.60;;;1.50;99.90;;;;;;5012470;28;20234;-59
2024/01/08 01:44:31;;;;;;;0.60;0.60;;;1.50;99.90;;;;;;5012254;28;20203;-60
2024/01/08 01:46:59;;;;;;;0.45;0.45;;;1.50;99.90;;;;;;5012159;28;20611;-60
2024/01/08 01:49:27;;;;;;;0.50;0.50;;;1.50;99.90;;;;;;5018659;28;20202;-59
2024/01/08 01:51:56;;;;;;;0.50;0.50;;;1.50;99.90;;;;;;5012686;28;20207;-60
2024/01/08 01:54:24;;;;;;;0.57;0.57;;;1.60;99.90;;;;;;5012140;28;20611;-59
2024/01/08 01:56:54;;;;;;;0.60;0.60;;;1.60;99.90;;;;;;5012052;28;20211;-59
2024/01/08 01:59:22;;;;;;;1.08;0.43;;;1.50;99.90;;;;;;5011546;28;20249;-58
2024/01/08 02:01:51;;;;;;;0.60;0.60;;;1.40;99.90;;;;;;5008166;28;20673;-59
2024/01/08 02:04:19;;;;;;;0.60;0.60;;;1.40;99.90;;;;;;5005474;28;20203;-60
2024/01/08 02:06:47;;;;;;;0.65;0.60;;;1.40;99.90;;;;;;5011706;28;20223;-59
2024/01/08 02:09:15;;;;;;;0.40;0.40;;;1.40;99.90;;;;;;5011495;28;20242;-58
2024/01/08 02:11:43;;;;;;;0.60;0.60;;;1.40;99.90;;;;;;5011754;28;20668;-59
2024/01/08 02:14:11;;;;;;;1.42;0.40;;;1.40;99.90;;;;;;5011516;28;20210;-59
2024/01/08 02:16:41;;;;;;;1.30;0.50;;;1.40;99.90;;;;;;5011939;28;20301;-59
2024/01/08 02:19:11;;;;;;;0.50;0.50;;;1.40;99.90;;;;;;5011407;28;20637;-59
2024/01/08 02:21:39;;;;;;;0.45;0.45;;;1.30;99.90;;;;;;5011649;28;20233;-59
2024/01/08 02:24:09;;;;;;;0.75;0.47;;;1.30;99.90;;;;;;5011619;28;20208;-59
2024/01/08 02:26:37;;;;;;;0.60;0.50;;;1.30;99.90;;;;;;5011505;28;20273;-59
2024/01/08 02:29:05;;;;;;;0.50;0.50;;;1.30;99.90;;;;;;5003588;28;20294;-59
2024/01/08 02:31:33;;;;;;;0.50;0.50;;;1.30;99.90;;;;;;5011572;28;20743;-59
2024/01/08 02:34:01;;;;;;;0.52;0.52;;;1.30;99.90;;;;;;5011748;28;20207;-59
2024/01/08 02:36:29;;;;;;;0.73;0.73;;;1.30;99.90;;;;;;5011564;28;20214;-60
2024/01/08 02:38:57;;;;;;;1.05;0.70;;;1.40;99.90;;;;;;5011184;28;20211;-59
2024/01/08 02:41:26;;;;;;;0.82;0.82;;;1.40;99.90;;;;;;5017495;28;20242;-59
2024/01/08 02:43:54;;;;;;;3.28;0.95;;;1.40;99.90;;;;;;5012974;28;20215;-60
2024/01/08 02:46:22;;;;;;;0.93;0.90;;;1.40;99.90;;;;;;5011082;28;20219;-59
2024/01/08 02:48:49;;;;;;;1.40;1.08;;;1.40;99.90;;;;;;5009981;28;20257;-60
2024/01/08 02:51:17;;;;;;;3.05;0.95;;;1.40;99.90;;;;;;5011396;28;20233;-59
2024/01/08 02:53:45;;;;;;;1.42;1.27;;;1.40;99.90;;;;;;5011034;28;20235;-61
2024/01/08 02:56:23;;;;;;;0.90;0.90;;;1.40;99.90;;;;;;5011339;28;20202;-59
2024/01/08 02:58:58;;;;;;;1.33;1.23;;;1.50;99.90;;;;;;5011101;28;20406;-59
2024/01/08 03:01:26;;;;;;;1.08;0.90;;;1.50;99.90;;;;;;5018368;28;20231;-60
2024/01/08 03:03:54;;;;;;;1.20;1.20;;;1.50;99.90;;;;;;5011447;28;20537;-60
2024/01/08 03:06:22;;;;;;;1.55;1.00;;;1.50;99.90;;;;;;5011196;28;20709;-59
2024/01/08 03:08:50;;;;;;;1.38;1.20;;;1.50;99.90;;;;;;5011044;28;20210;-59
2024/01/08 03:11:18;;;;;;;1.63;0.90;;;1.50;99.90;;;;;;5011234;28;20254;-59
2024/01/08 03:13:46;;;;;;;3.05;0.85;;;1.50;99.90;;;;;;5010930;28;20275;-60
2024/01/08 03:16:18;;;;;;;1.00;0.90;;;1.50;99.90;;;;;;5011400;28;20330;-59
2024/01/08 03:18:46;;;;;;;0.80;0.80;;;1.50;99.90;;;;;;5015011;28;20665;-60
2024/01/08 03:21:14;;;;;;;1.38;0.75;;;1.50;99.90;;;;;;5026325;28;20718;-60
2024/01/08 03:23:42;;;;;;;1.00;0.68;;;1.40;99.90;;;;;;5017975;28;20655;-58
2024/01/08 03:26:10;;;;;;;0.52;0.52;;;1.40;99.90;;;;;;5022925;28;20265;-60
2024/01/08 03:28:38;;;;;;;2.00;0.70;;;1.40;99.90;;;;;;5021910;28;20749;-59
2024/01/08 03:31:06;;;;;;;0.80;0.80;;;1.40;99.90;;;;;;5014542;28;20223;-59
2024/01/08 03:33:35;;;;;;;0.73;0.73;;;1.40;99.90;;;;;;5014601;28;20223;-59
2024/01/08 03:36:04;;;;;;;1.27;1.17;;;1.40;99.90;;;;;;5022710;28;20297;-59
2024/01/08 03:38:32;;;;;;;0.93;0.90;;;1.40;99.90;;;;;;5014598;28;20728;-59
2024/01/08 03:41:00;;;;;;;1.27;1.10;;;1.40;99.90;;;;;;5014300;28;20322;-59
2024/01/08 03:43:28;;;;;;;0.90;0.90;;;1.50;99.90;;;;;;5020341;28;20238;-59
2024/01/08 03:45:55;;;;;;;2.85;0.90;;;1.50;99.90;;;;;;5016051;28;20207;-59
2024/01/08 03:48:23;;;;;;;0.98;0.98;;;1.50;99.90;;;;;;5013751;28;20238;-58
2024/01/08 03:50:53;;;;;;;1.85;1.02;;;1.50;99.90;;;;;;5014196;28;20330;-58
2024/01/08 03:53:21;;;;;;;1.02;0.85;;;1.50;99.90;;;;;;5013999;28;20609;-59
2024/01/08 03:55:49;;;;;;;0.90;0.90;;;1.40;99.90;;;;;;5014093;28;20719;-59
2024/01/08 03:58:17;;;;;;;2.38;0.90;;;1.40;99.90;;;;;;5018629;28;20214;-59
2024/01/08 04:00:44;;;;;;;0.90;0.82;;;1.40;99.90;;;;;;5017299;28;20332;-60
2024/01/08 04:03:13;;;;;;;0.70;0.70;;;1.30;99.90;;;;;;5019734;28;20203;-59
2024/01/08 04:05:41;;;;;;;1.25;0.93;;;1.30;99.90;;;;;;5014034;28;20219;-59
2024/01/08 04:08:10;;;;;;;0.75;0.73;;;1.30;99.90;;;;;;5013429;28;20227;-59
2024/01/08 04:10:39;;;;;;;0.77;0.77;;;1.30;99.90;;;;;;5014349;28;20277;-59
2024/01/08 04:13:06;;;;;;;3.20;0.80;;;1.30;99.90;;;;;;5022040;28;20269;-60
2024/01/08 04:15:34;;;;;;;0.50;0.50;;;1.30;99.90;;;;;;5013918;28;20311;-58
2024/01/08 04:18:02;;;;;;;0.63;0.60;;;1.40;99.90;;;;;;5015768;28;20273;-59
2024/01/08 04:20:30;;;;;;;0.80;0.80;;;1.40;99.90;;;;;;5018906;28;20227;-58
2024/01/08 04:22:58;;;;;;;0.50;0.50;;;1.40;99.90;;;;;;5013680;28;20219;-59
2024/01/08 04:25:28;;;;;;;1.02;1.00;;;1.40;99.90;;;;;;5013798;28;20220;-59
2024/01/08 04:27:56;;;;;;;3.13;1.33;;;1.40;99.90;;;;;;5012910;28;20779;-59
2024/01/08 04:30:24;;;;;;;0.88;0.80;;;1.40;99.90;;;;;;5038093;22;20253;-60
2024/01/08 04:32:51;;;;;;;0.80;0.80;;;1.40;99.90;;;;;;5052821;28;20292;-59
2024/01/08 04:35:19;;;;;;;0.90;0.90;;;1.30;99.90;;;;;;5053016;28;20683;-60
2024/01/08 04:37:48;;;;;;;1.13;1.05;;;1.30;99.90;;;;;;5053076;28;20279;-59
2024/01/08 04:40:16;;;;;;;1.92;0.90;;;1.30;99.90;;;;;;5056964;28;20225;-59
2024/01/08 04:42:45;;;;;;;0.80;0.80;;;1.30;99.90;;;;;;5073074;28;20213;-60
2024/01/08 04:45:16;;;;;;;0.98;0.90;;;1.30;99.90;;;;;;5045296;28;20229;-60
2024/01/08 04:47:44;;;;;;;1.38;0.98;;;1.30;99.90;;;;;;5052591;28;20233;-60
2024/01/08 04:50:12;;;;;;;0.98;0.80;;;1.30;99.90;;;;;;5044443;28;20606;-60
2024/01/08 04:52:40;;;;;;;1.13;1.02;;;1.30;99.90;;;;;;5052937;28;20210;-59
2024/01/08 04:55:09;;;;;;;0.80;0.80;;;1.30;99.90;;;;;;5055406;28;20678;-60
2024/01/08 04:57:36;;;;;;;0.70;0.70;;;1.30;99.90;;;;;;5072390;28;20258;-60
2024/01/08 05:00:07;;;;;;;0.95;0.95;;;1.40;99.90;;;;;;5051609;28;20314;-59
2024/01/08 05:02:35;;;;;;;0.80;0.80;;;1.30;99.90;;;;;;5054465;28;20264;-59
2024/01/08 05:05:04;;;;;;;0.70;0.70;;;1.30;99.90;;;;;;5058633;28;20252;-59
2024/01/08 05:07:32;;;;;;;1.58;0.95;;;1.40;99.90;;;;;;5052336;28;20221;-60
2024/01/08 05:10:00;;;;;;;1.05;1.05;;;1.40;99.90;;;;;;5052126;28;20291;-60
2024/01/08 05:12:28;;;;;;;1.10;1.10;;;1.30;99.90;;;;;;5052347;28;20210;-60
2024/01/08 05:14:56;;;;;;;0.95;0.90;;;1.30;99.90;;;;;;5061683;28;20205;-61
2024/01/08 05:17:25;;;;;;;1.95;0.90;;;1.20;99.90;;;;;;5072233;28;20229;-60
2024/01/08 05:19:53;;;;;;;0.90;0.90;;;1.20;99.90;;;;;;5072039;28;20219;-59
2024/01/08 05:22:21;;;;;;;1.05;1.00;;;1.20;99.90;;;;;;5071617;28;20229;-59
2024/01/08 05:24:49;;;;;;;1.10;1.00;;;1.20;99.90;;;;;;5052038;28;20256;-59
2024/01/08 05:27:17;;;;;;;1.50;0.82;;;1.20;99.90;;;;;;5052139;28;20241;-60
2024/01/08 05:29:45;;;;;;;0.93;0.90;;;1.20;99.90;;;;;;5051584;28;20252;-60
2024/01/08 05:32:13;;;;;;;1.00;1.00;;;1.10;99.90;;;;;;5056034;28;20691;-60
2024/01/08 05:34:42;;;;;;;2.33;0.90;;;1.10;99.90;;;;;;5048563;28;20292;-59
2024/01/08 05:37:10;;;;;;;1.27;1.00;;;1.10;99.90;;;;;;5052712;28;20241;-60
2024/01/08 05:39:38;;;;;;;1.60;0.70;;;1.00;99.90;;;;;;5048423;28;20234;-59
2024/01/08 05:42:06;;;;;;;3.47;1.13;;;1.10;99.90;;;;;;5048357;28;20297;-60
2024/01/08 05:44:34;;;;;;;0.93;0.90;;;1.10;99.90;;;;;;5066140;28;20673;-59
2024/01/08 05:47:02;;;;;;;0.80;0.80;;;1.10;99.90;;;;;;5071723;28;20205;-60
2024/01/08 05:49:30;;;;;;;1.00;1.00;;;1.10;99.90;;;;;;5071183;28;20648;-60
2024/01/08 05:51:59;;;;;;;0.80;0.80;;;1.10;99.90;;;;;;5071421;28;20225;-58
2024/01/08 05:54:27;;;;;;;0.77;0.77;;;1.10;99.90;;;;;;5071785;28;20240;-60
2024/01/08 05:56:55;;;;;;;0.93;0.93;;;1.10;99.90;;;;;;5071488;28;20655;-60
2024/01/08 05:59:23;;;;;;;1.15;1.13;;;1.10;99.90;;;;;;5060616;28;20229;-59
2024/01/08 06:01:51;;;;;;;1.55;1.00;;;1.10;99.90;;;;;;5051151;28;20222;-59
2024/01/08 06:04:19;;;;;;;0.88;0.88;;;1.10;99.90;;;;;;5051137;28;20659;-60
2024/01/08 06:06:49;;;;;;;2.13;1.00;;;1.10;99.90;;;;;;5051109;28;20709;-59
2024/01/08 06:09:18;;;;;;;0.93;0.93;;;1.10;99.90;;;;;;5046465;28;20275;-60
2024/01/08 06:11:46;;;;;;;1.35;1.20;;;1.10;99.90;;;;;;5048220;28;20295;-60
2024/01/08 06:14:14;;;;;;;1.20;1.10;;;1.20;99.90;;;;;;5047292;28;20202;-60
2024/01/08 06:16:42;;;;;;;1.35;1.10;;;1.10;99.90;;;;;;5046672;28;20676;-60
2024/01/08 06:19:10;;;;;;;1.30;1.20;;;1.10;99.90;;;;;;5046581;28;20248;-60
2024/01/08 06:21:38;;;;;;;1.33;1.08;;;1.10;99.90;;;;;;5042758;28;20303;-60
2024/01/08 06:24:07;;;;;;;1.30;1.20;;;1.10;99.90;;;;;;5051196;28;20630;-60
2024/01/08 06:26:36;;;;;;;1.48;1.10;;;1.10;99.90;;;;;;5051299;28;20257;-60
2024/01/08 06:29:04;;;;;;;1.60;1.17;;;1.10;99.90;;;;;;5050783;28;20288;-60
2024/01/08 06:31:32;;;;;;;0.93;0.93;;;1.10;99.90;;;;;;5051175;28;20283;-61
2024/01/08 06:34:01;;;;;;;1.50;1.40;;;1.10;99.90;;;;;;5051242;28;20198;-60
2024/01/08 06:36:29;;;;;;;1.48;1.38;;;1.10;99.90;;;;;;5051324;28;20205;-60
2024/01/08 06:38:57;;;;;;;1.35;1.25;;;1.10;99.90;;;;;;5050856;28;20205;-61
2024/01/08 06:41:24;;;;;;;1.17;1.15;;;1.10;99.90;;;;;;5051186;28;20312;-60
2024/01/08 06:43:54;;;;;;;2.90;1.40;;;1.10;99.90;;;;;;5051038;28;20283;-61
2024/01/08 06:46:22;;;;;;;1.60;1.50;;;1.10;99.90;;;;;;5043146;28;20268;-61
2024/01/08 06:48:49;;;;;;;1.33;1.23;;;1.10;99.90;;;;;;5050677;28;20718;-60
2024/01/08 06:51:19;;;;;;;1.33;1.23;;;1.10;99.90;;;;;;5053004;28;20248;-59
2024/01/08 06:53:47;;;;;;;1.83;1.65;;;1.10;99.90;;;;;;5054998;28;20229;-60
2024/01/08 06:56:15;;;;;;;1.65;1.50;;;1.10;99.90;;;;;;5054956;28;20233;-61
2024/01/08 06:58:43;;;;;;;1.77;1.67;;;1.20;99.90;;;;;;5053396;28;20293;-59
2024/01/08 07:01:12;;;;;;;1.23;1.23;;;1.10;99.90;;;;;;5053454;28;20657;-63
2024/01/08 07:03:40;;;;;;;2.53;1.50;;;1.10;99.90;;;;;;5054653;28;20247;-63
2024/01/08 07:06:08;;;;;;;2.75;1.80;;;1.20;99.90;;;;;;5053019;28;20205;-63
2024/01/08 07:08:36;;;;;;;1.65;1.55;;;1.20;99.90;;;;;;5048336;28;20218;-63
2024/01/08 07:11:05;;;;;;;2.17;1.80;;;1.20;99.90;;;;;;5054474;28;20435;-63
2024/01/08 07:13:33;;;;;;;1.40;1.30;;;1.20;99.90;;;;;;5054601;28;20251;-62
2024/01/08 07:16:03;;;;;;;1.50;1.40;;;1.20;99.90;;;;;;5054507;28;20671;-63
2024/01/08 07:18:32;;;;;;;1.40;1.30;;;1.20;99.90;;;;;;5051147;28;20202;-63
2024/01/08 07:21:01;;;;;;;1.52;1.42;;;1.20;99.90;;;;;;5053235;28;20233;-62
2024/01/08 07:23:29;;;;;;;1.58;1.40;;;1.10;99.90;;;;;;5054352;28;20264;-63
2024/01/08 07:25:56;;;;;;;1.63;1.52;;;1.00;99.90;;;;;;5062470;28;20205;-63
2024/01/08 07:28:25;;;;;;;1.83;1.73;;;1.00;99.90;;;;;;5074387;28;20258;-63
2024/01/08 07:30:53;;;;;;;1.55;1.45;;;1.00;99.90;;;;;;5074205;28;20244;-63
2024/01/08 07:33:22;;;;;;;2.13;2.00;;;1.00;99.90;;;;;;5074407;28;20579;-63
2024/01/08 07:35:51;;;;;;;1.98;1.75;;;1.10;99.90;;;;;;5073108;28;20201;-63
2024/01/08 07:38:21;;;;;;;1.98;1.48;;;1.10;99.90;;;;;;5071775;28;20223;-63
2024/01/08 07:40:49;;;;;;;1.83;1.65;;;1.00;99.90;;;;;;5071990;28;20686;-63
2024/01/08 07:43:17;;;;;;;1.50;1.40;;;1.00;99.90;;;;;;5072270;28;20213;-63
2024/01/08 07:45:45;;;;;;;1.88;1.38;;;1.00;99.90;;;;;;5072146;28;20205;-62
2024/01/08 07:48:13;;;;;;;1.75;1.65;;;1.00;99.90;;;;;;5071995;28;20245;-62
2024/01/08 07:50:41;;;;;;;2.80;1.50;;;1.00;99.90;;;;;;5072072;28;20225;-62
2024/01/08 07:53:10;;;;;;;1.67;1.58;;;1.00;99.90;;;;;;5074228;28;20296;-63
2024/01/08 07:55:38;;;;;;;1.40;1.30;;;0.90;99.90;;;;;;5073699;28;20205;-63
2024/01/08 07:58:06;;;;;;;1.80;1.60;;;0.90;99.90;;;;;;5073633;28;20209;-63
2024/01/08 08:00:34;;;;;;;6.13;1.58;;;0.80;99.90;;;;;;5073630;28;20230;-63
2024/01/08 08:03:03;;;;;;;4.38;1.50;;;0.70;99.90;;;;;;5073124;28;20710;-63
2024/01/08 08:05:31;;;;;;;2.25;1.60;;;0.70;99.90;;;;;;5073523;28;20205;-62
2024/01/08 08:07:59;;;;;;;2.78;1.80;;;0.70;99.90;;;;;;5073533;28;20205;-63
2024/01/08 08:10:29;;;;;;;2.20;1.80;;;0.70;99.90;;;;;;5073393;28;20229;-62
2024/01/08 08:12:56;;;;;;;2.03;1.92;;;0.60;99.90;;;;;;5073753;28;20264;-62
2024/01/08 08:15:24;;;;;;;2.10;1.88;;;0.60;99.90;;;;;;5073511;28;20201;-62
2024/01/08 08:17:52;;;;;;;1.88;1.77;;;0.60;99.90;;;;;;5073478;28;20270;-63
2024/01/08 08:20:21;;;;;;;4.53;1.92;;;0.60;99.90;;;;;;5073376;28;20221;-63
2024/01/08 08:22:49;;;;;;;2.25;2.05;;;0.70;99.90;;;;;;5073457;28;20746;-63
2024/01/08 08:25:19;;;;;;;1.60;1.50;;;0.70;99.90;;;;;;5073187;28;20256;-63
2024/01/08 08:27:48;;;;;;;3.90;2.20;;;0.70;99.90;;;;;;5073355;28;20670;-63
2024/01/08 08:30:19;;;;;;;3.03;1.90;;;0.70;99.90;;;;;;5072700;28;20252;-63
2024/01/08 08:32:47;;;;;;;2.83;1.95;;;0.70;99.90;;;;;;5066977;28;20305;-63
2024/01/08 08:35:15;;;;;;;2.53;2.33;;;0.70;99.90;;;;;;5053109;28;20206;-63
2024/01/08 08:37:43;;;;;;;2.60;1.98;;;0.70;99.90;;;;;;5053169;28;20663;-63
2024/01/08 08:40:21;;;;;;;7.00;2.92;;;0.70;99.90;;;;;;5052805;28;20226;-63
2024/01/08 08:42:50;;;;;;;2.00;1.90;;;0.70;99.90;;;;;;5050132;28;20221;-62
2024/01/08 08:45:18;;;;;;;2.97;2.03;;;0.70;99.90;;;;;;5071568;28;20205;-62
2024/01/08 08:47:46;;;;;;;2.67;2.00;;;0.80;99.90;;;;;;5072797;28;20279;-62
2024/01/08 08:50:14;;;;;;;3.20;2.60;;;0.70;99.90;;;;;;5056178;28;20234;-62
2024/01/08 08:52:43;;;;;;;3.20;2.30;;;0.70;99.90;;;;;;5052810;28;20645;-63
2024/01/08 08:55:13;;;;;;;3.70;2.30;;;0.60;99.90;;;;;;5052191;28;20235;-62
2024/01/08 08:57:41;;;;;;;2.85;2.55;;;0.60;99.90;;;;;;5052324;28;20245;-63
2024/01/08 09:00:11;;;;;;;3.40;2.63;;;0.70;99.90;;;;;;5051367;28;20222;-63
2024/01/08 09:02:43;;;;;;;3.38;3.08;;;0.70;99.90;;;;;;5051659;28;20219;-63
2024/01/08 09:05:11;;;;;;;3.90;3.55;;;0.70;99.90;;;;;;5052316;28;20206;-62
2024/01/08 09:07:39;;;;;;;5.30;2.75;;;0.80;99.90;;;;;;5052649;28;20206;-63
2024/01/08 09:10:08;;;;;;;3.90;2.35;;;0.80;99.90;;;;;;5051778;28;20266;-63
2024/01/08 09:12:36;;;;;;;3.83;2.25;;;0.80;99.90;;;;;;5052702;28;20246;-63
2024/01/08 09:15:04;;;;;;;2.45;2.25;;;0.80;99.90;;;;;;5059966;28;20645;-62
2024/01/08 09:17:35;;;;;;;2.53;2.33;;;0.80;99.90;;;;;;5072270;28;20209;-63
2024/01/08 09:20:03;;;;;;;2.70;2.50;;;0.90;99.90;;;;;;5071784;28;20256;-62
2024/01/08 09:22:31;;;;;;;3.00;2.50;;;1.00;99.90;;;;;;5071933;28;20700;-62
2024/01/08 09:24:59;;;;;;;3.45;2.40;;;1.00;99.90;;;;;;5057069;28;20229;-63
2024/01/08 09:27:27;;;;;;;3.78;2.22;;;1.10;99.90;;;;;;5052118;28;20723;-62
2024/01/08 09:29:57;;;;;;;3.15;2.50;;;1.10;99.90;;;;;;5050771;28;20264;-63
2024/01/08 09:32:25;;;;;;;3.58;2.70;;;1.10;99.90;;;;;;5051728;28;20647;-64
2024/01/08 09:34:54;;;;;;;3.28;2.58;;;1.20;99.90;;;;;;5051764;28;20640;-64
2024/01/08 09:37:22;;;;;;;3.35;2.72;;;1.30;99.90;;;;;;5050880;28;20631;-63
2024/01/08 09:39:54;;;;;;;2.38;2.20;;;1.30;99.90;;;;;;5050798;28;20579;-63
2024/01/08 09:42:22;;;;;;;3.00;2.15;;;1.20;99.90;;;;;;5051665;28;20237;-63
2024/01/08 09:44:51;;;;;;;3.25;2.55;;;1.20;99.90;;;;;;5051319;28;20201;-62
2024/01/08 09:47:19;;;;;;;3.65;2.53;;;1.20;99.90;;;;;;5067694;28;20213;-63
2024/01/08 09:49:47;;;;;;;2.65;2.30;;;1.20;99.90;;;;;;5049910;28;20205;-63
2024/01/08 09:52:16;;;;;;;4.53;2.70;;;1.20;99.90;;;;;;5051563;28;20296;-63
2024/01/08 09:54:44;;;;;;;5.25;2.60;;;1.20;99.90;;;;;;5051637;28;20236;-63
2024/01/08 09:57:12;;;;;;;3.78;2.70;;;1.30;99.90;;;;;;5059742;28;20693;-63
2024/01/08 09:59:40;;;;;;;2.85;2.15;;;1.40;99.90;;;;;;5068578;28;20248;-63
2024/01/08 10:02:15;;;;;;;3.60;2.63;;;1.50;99.90;;;;;;5071076;28;20651;-63
2024/01/08 10:04:43;;;;;;;3.58;2.65;;;1.60;99.90;;;;;;5071675;28;20204;-63
2024/01/08 10:07:13;;;;;;;4.35;2.83;;;1.90;99.90;;;;;;5071685;28;20288;-63
2024/01/08 10:09:42;;;;;;;3.05;2.65;;;2.20;99.90;;;;;;5071056;28;20265;-63
2024/01/08 10:12:10;;;;;;;2.78;2.50;;;2.60;99.90;;;;;;5071491;28;20223;-62
2024/01/08 10:14:38;;;;;;;3.30;3.00;;;3.00;99.90;;;;;;5071255;28;20208;-62
2024/01/08 10:17:06;;;;;;;3.33;2.72;;;3.20;99.90;;;;;;5065436;28;20266;-63
2024/01/08 10:19:34;;;;;;;5.53;3.30;;;3.30;99.90;;;;;;5050013;28;20248;-63
2024/01/08 10:22:09;;;;;;;3.53;3.20;;;3.40;99.90;;;;;;5051109;28;20691;-62
2024/01/08 10:24:38;;;;;;;4.50;2.58;;;3.40;99.90;;;;;;5050986;28;20248;-63
2024/01/08 10:27:07;;;;;;;3.63;3.17;;;3.30;99.90;;;;;;5050801;28;20857;-64
2024/01/08 10:29:35;;;;;;;2.58;2.15;;;3.00;99.90;;;;;;5042692;28;20210;-63
2024/01/08 10:32:04;;;;;;;4.15;3.10;;;2.80;99.90;;;;;;5105841;22;20229;-72
2024/01/08 10:34:34;;;;;;;3.50;2.38;;;2.70;99.90;;;;;;5083919;28;20565;-72
2024/01/08 10:37:02;;;;;;;4.28;2.80;;;2.50;99.90;;;;;;5100755;28;20226;-72
2024/01/08 10:39:31;;;;;;;3.28;2.67;;;2.50;99.90;;;;;;5110714;28;20230;-72
2024/01/08 10:42:18;;;;;;;2.90;2.55;;;2.40;99.90;;;;;;5112970;28;20260;-72
2024/01/08 10:44:46;;;;;;;2.40;2.20;;;2.40;99.90;;;;;;5112591;28;20253;-71
2024/01/08 10:47:17;;;;;;;2.75;2.47;;;2.40;99.90;;;;;;5111180;28;20223;-74
2024/01/08 10:49:48;;;;;;;2.63;2.42;;;2.30;99.90;;;;;;5103709;28;20200;-72
2024/01/08 10:52:21;;;;;;;4.65;2.78;;;2.20;99.90;;;;;;5111641;28;20740;-72
2024/01/08 10:54:51;;;;;;;2.47;2.15;;;2.20;99.90;;;;;;5112232;28;20228;-73
2024/01/08 10:57:21;;;;;;;3.20;2.13;;;2.10;99.90;;;;;;5111751;28;20227;-73
2024/01/08 10:59:49;;;;;;;3.72;2.50;;;1.90;99.90;;;;;;5110901;28;20247;-73
2024/01/08 11:02:17;;;;;;;2.67;1.77;;;1.70;99.90;;;;;;5111746;28;20240;-73
2024/01/08 11:04:45;;;;;;;1.98;1.88;;;1.60;99.90;;;;;;5110698;28;20220;-72
2024/01/08 11:07:14;;;;;;;3.42;2.42;;;1.50;99.90;;;;;;5105073;28;20330;-71
2024/01/08 11:09:41;;;;;;;2.10;2.00;;;1.40;99.90;;;;;;5103631;28;20243;-72
2024/01/08 11:12:11;;;;;;;3.38;2.03;;;1.30;99.90;;;;;;5111738;28;20284;-72
2024/01/08 11:14:41;;;;;;;2.75;2.40;;;1.30;99.90;;;;;;5111813;28;20234;-70
2024/01/08 11:17:09;;;;;;;2.42;2.05;;;1.20;99.90;;;;;;5111814;28;20220;-71
2024/01/08 11:19:45;;;;;;;3.67;2.38;;;1.20;99.90;;;;;;5111541;28;20240;-72
2024/01/08 11:22:15;;;;;;;2.30;2.10;;;1.30;99.90;;;;;;5111799;28;20676;-71
2024/01/08 11:24:43;;;;;;;2.53;2.25;;;1.20;99.90;;;;;;5111928;28;20726;-71
2024/01/08 11:27:11;;;;;;;2.17;1.95;;;1.20;99.90;;;;;;5111898;28;20255;-71
2024/01/08 11:29:38;;;;;;;2.83;1.88;;;1.20;99.90;;;;;;5110845;28;20254;-72
2024/01/08 11:32:54;;;;;;;3.10;2.45;;;1.30;99.90;;;;;;5111917;28;20227;-71
2024/01/08 11:35:22;;;;;;;2.78;2.42;;;1.40;99.90;;;;;;5049612;28;20202;-71
2024/01/08 11:37:55;;;;;;;3.55;2.20;;;1.40;99.90;;;;;;5098963;28;20224;-71
2024/01/08 11:40:23;;;;;;;2.78;2.35;;;1.30;99.90;;;;;;5116095;28;20207;-71
2024/01/08 11:42:51;;;;;;;2.25;2.08;;;1.30;99.90;;;;;;5116438;28;20572;-71
2024/01/08 11:45:20;;;;;;;2.17;2.00;;;1.20;99.90;;;;;;5116176;28;20687;-71
2024/01/08 11:47:49;;;;;;;3.38;2.20;;;1.30;99.90;;;;;;5116331;28;20216;-71
2024/01/08 11:50:18;;;;;;;2.30;2.05;;;1.30;99.90;;;;;;5115344;28;20579;-71
2024/01/08 11:52:47;;;;;;;6.00;2.95;;;1.30;99.90;;;;;;5114987;27;20228;-71
2024/01/08 11:55:14;;;;;;;2.30;2.10;;;1.30;99.90;;;;;;5114972;28;20203;-71
2024/01/08 11:57:42;;;;;;;3.25;2.20;;;1.30;99.90;;;;;;5116451;28;20220;-72
2024/01/08 12:00:14;;;;;;;2.60;1.92;;;1.30;99.90;;;;;;5113318;28;20204;-72
2024/01/08 12:02:42;;;;;;;3.05;2.55;;;1.40;99.90;;;;;;5113853;28;20600;-71
2024/01/08 12:05:12;;;;;;;5.22;2.30;;;1.30;99.90;;;;;;5109914;28;21176;-71
2024/01/08 12:07:41;;;;;;;3.10;2.63;;;1.30;99.90;;;;;;5109885;28;20731;-71
2024/01/08 12:10:12;;;;;;;5.05;3.30;;;1.40;99.90;;;;;;5109522;28;20750;-72
2024/01/08 12:12:40;;;;;;;2.15;1.95;;;1.40;99.90;;;;;;5106668;28;20255;-71
2024/01/08 12:15:09;;;;;;;3.30;3.00;;;1.50;99.90;;;;;;5113628;28;20207;-71
2024/01/08 12:17:37;;;;;;;4.40;3.00;;;1.50;99.90;;;;;;5114155;27;20243;-72
2024/01/08 12:20:06;;;;;;;5.47;3.28;;;1.50;99.90;;;;;;5113853;28;20239;-71
2024/01/08 12:22:35;;;;;;;2.92;2.63;;;1.40;99.90;;;;;;5114362;28;20200;-71
2024/01/08 12:25:06;;;;;;;3.85;3.17;;;1.40;99.90;;;;;;5113946;28;20223;-72
2024/01/08 12:27:34;;;;;;;3.20;2.90;;;1.40;99.90;;;;;;5114321;28;20231;-71
2024/01/08 12:30:03;;;;;;;5.20;2.80;;;1.40;99.90;;;;;;5113487;28;20200;-71
2024/01/08 12:32:31;;;;;;;4.57;3.05;;;1.40;99.90;;;;;;5114937;28;20223;-71
2024/01/08 12:35:03;;;;;;;3.95;3.03;;;1.40;99.90;;;;;;5114796;28;20236;-72
2024/01/08 12:37:34;;;;;;;3.90;2.58;;;1.40;99.90;;;;;;5115376;28;20228;-71
2024/01/08 12:40:04;;;;;;;5.38;3.22;;;1.50;99.90;;;;;;5115220;28;20236;-71
2024/01/08 12:42:34;;;;;;;5.22;3.28;;;1.50;99.90;;;;;;5115820;28;20286;-71
2024/01/08 12:45:04;;;;;;;3.33;3.03;;;1.50;99.90;;;;;;5115427;28;20253;-71
2024/01/08 12:47:32;;;;;;;3.38;3.08;;;1.50;99.90;;;;;;5115846;28;20709;-71
2024/01/08 12:50:00;;;;;;;4.85;3.45;;;1.50;99.90;;;;;;5114371;28;20700;-71
2024/01/08 12:52:28;;;;;;;3.72;3.08;;;1.50;99.90;;;;;;5116111;28;20251;-71
2024/01/08 12:54:57;;;;;;;6.45;4.03;;;1.40;99.90;;;;;;5115491;28;20196;-71
2024/01/08 12:57:29;;;;;;;10.75;5.07;;;1.40;99.90;;;;;;5115699;28;20223;-72
2024/01/08 12:59:58;;;;;;;5.13;3.53;;;1.40;99.90;;;;;;5113099;28;20200;-72
2024/01/08 13:02:29;;;;;;;5.13;3.30;;;1.30;99.90;;;;;;5114534;28;20722;-71
2024/01/08 13:04:57;;;;;;;4.10;3.45;;;1.20;99.90;;;;;;5116644;28;20207;-71